Tavistock, Canada
Current Conditions -  °F | °C
As of 4:14 PM on Monday 24 Nov 2014 (Local Time) from CYKF Reporting Station
Broken Clouds Broken Clouds  
Wind Chill: 50°   Ceiling: 2900
Heat Index: 50°   Visibility: 9mi
Dew Point: 39°   Wind: 46mph
Humidity: 66%   Direction: 230°SW
Pressure: 29.26"   Gusts: 63mph
Location:  43.32°N, 80.83°W
Report Text: CYKF 242114Z AUTO 23040G55KT 9SM BKN029 BKN036 10/04 A2926 RMK PRESRR SLP911 DENSITY ALT 1400FT
Loading
Personal Weather Stations






























Interactive Weather Map New forecast layout! Learn more

10-Day Weather Forecast

Advertisements
Track Severe Weather on mobile